Time;durP1;ratioP1;P1;durP2;ratioP2;P2;SDS_P1;SDS_P2;PMS_P1;PMS_P2;Temp;Humidity;BMP_temperature;BMP_pressure;BME280_temperature;BME280_humidity;BME280_pressure;Samples;Min_cycle;Max_cycle;Signal;HPM_P1;HPM_P2
2023/01/13 00:00:20;;;;;;;1.08;0.30;;;;;;;6.09;100.00;95624.97;1023389;28;20106;-71
2023/01/13 00:00:50;;;;;;;0.30;0.30;;;;;;;6.13;100.00;95634.66;1026745;28;20063;-70
2023/01/13 00:01:22;;;;;;;0.55;0.40;;;;;;;6.14;100.00;95622.44;1030687;28;20030;-66
2023/01/13 00:01:53;;;;;;;3.50;0.50;;;;;;;6.20;100.00;95620.69;1018864;29;20031;-68
2023/01/13 00:02:23;;;;;;;0.60;0.30;;;;;;;6.10;100.00;95618.72;1019083;29;20725;-68
2023/01/13 00:02:54;;;;;;;0.90;0.40;;;;;;;6.07;100.00;95625.22;1026848;28;20062;-71
2023/01/13 00:03:24;;;;;;;0.95;0.50;;;;;;;6.16;100.00;95630.03;1019332;29;20031;-69
2023/01/13 00:03:55;;;;;;;2.03;0.35;;;;;;;6.11;100.00;95636.72;1022699;29;20844;-68
2023/01/13 00:04:26;;;;;;;1.90;0.38;;;;;;;6.12;100.00;95629.69;1030485;28;20369;-68
2023/01/13 00:04:57;;;;;;;0.43;0.43;;;;;;;6.19;100.00;95624.34;1027215;28;20254;-70
2023/01/13 00:05:28;;;;;;;3.55;0.45;;;;;;;6.20;100.00;95625.91;1029984;28;20357;-68
2023/01/13 00:05:59;;;;;;;2.47;0.80;;;;;;;6.22;100.00;95635.06;1030146;28;20266;-69
2023/01/13 00:06:30;;;;;;;3.85;0.43;;;;;;;6.19;100.00;95626.94;1031186;28;20862;-71
2023/01/13 00:07:00;;;;;;;1.77;0.30;;;;;;;6.20;100.00;95618.88;1030697;28;20035;-69
2023/01/13 00:07:31;;;;;;;1.90;0.45;;;;;;;6.16;100.00;95623.00;1030774;28;20062;-68
2023/01/13 00:08:04;;;;;;;6.75;0.82;;;;;;;6.07;100.00;95609.59;1030322;28;20347;-67
2023/01/13 00:08:34;;;;;;;1.25;0.60;;;;;;;6.09;100.00;95604.91;1031074;28;20030;-70
2023/01/13 00:09:05;;;;;;;2.63;0.65;;;;;;;6.15;100.00;95616.22;1026624;28;20266;-69
2023/01/13 00:09:35;;;;;;;3.65;0.70;;;;;;;6.12;100.00;95627.09;1026605;28;20031;-70
2023/01/13 00:10:08;;;;;;;2.92;1.17;;;;;;;6.15;100.00;95618.81;1026410;28;20084;-67
2023/01/13 00:10:38;;;;;;;1.13;0.60;;;;;;;6.21;100.00;95612.66;1027483;28;20031;-69
2023/01/13 00:11:09;;;;;;;1.27;0.40;;;;;;;6.19;100.00;95617.31;1037423;28;20264;-69
2023/01/13 00:11:40;;;;;;;0.60;0.32;;;;;;;6.20;100.00;95607.66;1030524;28;20018;-68
2023/01/13 00:12:10;;;;;;;2.65;0.43;;;;;;;6.18;100.00;95615.72;1026518;28;20282;-69
2023/01/13 00:12:42;;;;;;;0.70;0.50;;;;;;;6.16;100.00;95604.75;1026646;28;20031;-69
2023/01/13 00:13:12;;;;;;;2.00;0.40;;;;;;;6.13;100.00;95611.22;1023633;28;20504;-69
2023/01/13 00:13:43;;;;;;;1.10;0.47;;;;;;;6.14;100.00;95602.41;1034825;28;20268;-68
2023/01/13 00:14:13;;;;;;;2.55;0.52;;;;;;;6.16;100.00;95603.97;1034653;28;20046;-68
2023/01/13 00:14:44;;;;;;;2.40;0.50;;;;;;;6.10;100.00;95605.69;1035041;28;20100;-68
2023/01/13 00:15:14;;;;;;;1.60;0.55;;;;;;;6.16;100.00;95596.94;1034841;28;20088;-70
2023/01/13 00:16:00;;;;;;;2.83;0.55;;;;;;;6.15;100.00;95605.78;1034460;28;20729;-70
2023/01/13 00:16:30;;;;;;;2.65;0.30;;;;;;;6.08;100.00;95589.53;1030694;28;20030;-67
2023/01/13 00:17:02;;;;;;;1.00;0.43;;;;;;;6.13;100.00;95594.81;1030952;28;20273;-71
2023/01/13 00:17:32;;;;;;;0.55;0.32;;;;;;;6.08;100.00;95594.75;1028932;28;20113;-66
2023/01/13 00:18:02;;;;;;;2.92;0.47;;;;;;;6.11;100.00;95596.88;1022552;28;20267;-68
2023/01/13 00:18:33;;;;;;;3.50;0.52;;;;;;;6.16;100.00;95609.97;1023026;28;20118;-68
2023/01/13 00:19:03;;;;;;;1.30;1.00;;;;;;;6.16;100.00;95596.94;1026586;28;20125;-68
2023/01/13 00:19:34;;;;;;;2.53;0.52;;;;;;;6.26;100.00;95599.69;1026591;28;20035;-68
2023/01/13 00:20:05;;;;;;;2.03;0.50;;;;;;;6.16;100.00;95588.34;1030729;28;20030;-69
2023/01/13 00:20:36;;;;;;;2.38;0.95;;;;;;;6.19;100.00;95601.69;1023183;28;20106;-68
2023/01/13 00:21:09;;;;;;;0.82;0.40;;;;;;;6.22;100.00;95606.41;1026699;28;20729;-69
2023/01/13 00:21:40;;;;;;;1.08;0.30;;;;;;;6.21;100.00;95599.63;1027097;28;20038;-68
2023/01/13 00:22:10;;;;;;;0.57;0.30;;;;;;;6.21;100.00;95589.22;1027086;28;20270;-68
2023/01/13 00:22:41;;;;;;;1.77;0.60;;;;;;;6.25;100.00;95605.94;1023326;28;20056;-71
2023/01/13 00:23:11;;;;;;;1.20;0.50;;;;;;;6.22;100.00;95601.19;1026504;28;20034;-66
2023/01/13 00:23:42;;;;;;;2.60;0.40;;;;;;;6.26;100.00;95604.13;1025789;28;20031;-68
2023/01/13 00:24:12;;;;;;;2.55;0.47;;;;;;;6.27;100.00;95598.69;1026896;28;20031;-67
2023/01/13 00:24:42;;;;;;;1.90;0.50;;;;;;;6.23;100.00;95605.38;1031828;28;20054;-68
2023/01/13 00:25:13;;;;;;;2.13;0.32;;;;;;;6.13;100.00;95608.63;1031026;28;20034;-71
2023/01/13 00:25:43;;;;;;;0.73;0.35;;;;;;;6.12;100.00;95608.88;1025894;28;20023;-67
2023/01/13 00:26:16;;;;;;;0.70;0.40;;;;;;;6.12;100.00;95607.03;1023375;28;20171;-70
2023/01/13 00:26:46;;;;;;;2.15;0.35;;;;;;;6.09;100.00;95615.34;1018251;29;20087;-67
2023/01/13 00:27:17;;;;;;;0.45;0.40;;;;;;;6.15;100.00;95611.00;1018122;29;21049;-67
2023/01/13 00:27:47;;;;;;;0.73;0.20;;;;;;;6.12;100.00;95569.78;1026093;28;20046;-67
2023/01/13 00:28:17;;;;;;;3.63;0.40;;;;;;;6.16;100.00;95604.75;1026357;28;20037;-67
2023/01/13 00:28:48;;;;;;;1.60;0.50;;;;;;;6.10;100.00;95587.47;1022252;29;20102;-68
2023/01/13 00:29:19;;;;;;;0.95;0.40;;;;;;;6.14;100.00;95604.22;1018679;29;20031;-69
2023/01/13 00:29:49;;;;;;;0.95;0.30;;;;;;;6.16;100.00;95596.94;1024702;28;20042;-69
2023/01/13 00:30:19;;;;;;;0.70;0.28;;;;;;;6.17;100.00;95589.91;1030219;28;20034;-68
2023/01/13 00:30:50;;;;;;;0.47;0.35;;;;;;;6.19;100.00;95604.28;1034524;28;20439;-70
2023/01/13 00:31:20;;;;;;;0.55;0.28;;;;;;;6.17;100.00;95593.31;1027611;28;20042;-68
2023/01/13 00:31:51;;;;;;;0.90;0.45;;;;;;;6.25;100.00;95579.88;1026550;28;20386;-69
2023/01/13 00:32:21;;;;;;;1.27;0.47;;;;;;;6.26;100.00;95588.47;1030727;28;20034;-68
2023/01/13 00:32:52;;;;;;;0.50;0.40;;;;;;;6.21;100.00;95599.63;1030501;28;20066;-68
2023/01/13 00:33:23;;;;;;;0.77;0.30;;;;;;;6.17;100.00;95582.91;1026586;28;20094;-70
2023/01/13 00:33:55;;;;;;;0.43;0.28;;;;;;;6.06;100.00;95581.16;1022558;28;20023;-69
2023/01/13 00:34:26;;;;;;;1.13;0.47;;;;;;;6.13;100.00;95592.97;1018664;29;20058;-69
2023/01/13 00:34:57;;;;;;;0.73;0.40;;;;;;;6.07;100.00;95585.31;1018686;29;20279;-69
2023/01/13 00:35:28;;;;;;;0.80;0.20;;;;;;;6.13;100.00;95587.78;1027299;28;20730;-67
2023/01/13 00:35:59;;;;;;;4.78;0.50;;;;;;;6.12;100.00;95575.00;1030531;28;20265;-69
2023/01/13 00:36:30;;;;;;;2.72;0.80;;;;;;;6.14;100.00;95575.56;1026554;28;20416;-67
2023/01/13 00:37:01;;;;;;;1.92;0.55;;;;;;;6.09;100.00;95565.06;1024304;28;20403;-68
2023/01/13 00:37:31;;;;;;;1.77;0.22;;;;;;;6.09;100.00;95576.25;1018742;29;20107;-69
2023/01/13 00:38:01;;;;;;;1.25;0.30;;;;;;;6.09;100.00;95580.69;1026663;28;20027;-69
2023/01/13 00:38:34;;;;;;;3.13;0.38;;;;;;;6.09;100.00;95581.47;1026283;28;20541;-69
2023/01/13 00:39:04;;;;;;;0.85;0.30;;;;;;;6.13;100.00;95581.78;1018695;29;20046;-68
2023/01/13 00:39:35;;;;;;;0.70;0.30;;;;;;;6.08;100.00;95581.72;1018611;29;20282;-70
2023/01/13 00:40:06;;;;;;;3.10;0.52;;;;;;;6.20;100.00;95579.00;1022706;28;20063;-70
2023/01/13 00:40:36;;;;;;;1.98;0.65;;;;;;;6.24;100.00;95585.34;1022758;28;20118;-69
2023/01/13 00:41:09;;;;;;;1.45;0.45;;;;;;;6.18;100.00;95576.66;1026336;28;20278;-67
2023/01/13 00:43:23;;;;;;;1.88;0.50;;;;;;;6.34;100.00;95583.66;1025449;28;20282;-68
2023/01/13 00:44:00;;;;;;;2.40;0.50;;;;;;;6.29;100.00;95585.41;1028917;28;20269;-68
2023/01/13 00:44:30;;;;;;;0.45;0.30;;;;;;;6.34;100.00;95588.09;1026762;28;20348;-69
2023/01/13 00:45:01;;;;;;;1.95;0.63;;;;;;;6.28;100.00;95582.00;1025837;28;20054;-69
2023/01/13 00:45:31;;;;;;;0.88;0.40;;;;;;;6.20;100.00;95577.19;1026631;28;20031;-67
2023/01/13 00:46:07;;;;;;;0.95;0.40;;;;;;;6.25;100.00;95582.50;1022596;29;20106;-69
2023/01/13 00:46:37;;;;;;;2.10;0.50;;;;;;;6.24;100.00;95578.31;1027232;28;20079;-68
2023/01/13 00:47:07;;;;;;;0.55;0.47;;;;;;;6.24;100.00;95580.91;1031502;28;20969;-71
2023/01/13 00:47:38;;;;;;;2.63;0.40;;;;;;;6.24;100.00;95593.94;1030990;28;20034;-69
2023/01/13 00:48:08;;;;;;;1.27;0.50;;;;;;;6.23;100.00;95591.56;1030545;28;20435;-69
2023/01/13 00:48:39;;;;;;;0.80;0.20;;;;;;;6.20;100.00;95582.41;1034546;28;20400;-69
2023/01/13 00:49:10;;;;;;;2.97;0.40;;;;;;;6.24;100.00;95588.75;1026347;28;20488;-71
2023/01/13 00:49:40;;;;;;;3.97;0.30;;;;;;;6.23;100.00;95578.53;1030302;28;20443;-68
2023/01/13 00:50:10;;;;;;;4.72;0.30;;;;;;;6.30;100.00;95584.38;1029038;28;20507;-70
2023/01/13 00:50:41;;;;;;;1.27;0.63;;;;;;;6.34;100.00;95578.47;1034634;28;20030;-70
2023/01/13 00:51:13;;;;;;;1.42;0.50;;;;;;;6.34;100.00;95575.06;1022809;29;20114;-70
2023/01/13 00:51:44;;;;;;;0.45;0.20;;;;;;;6.30;100.00;95556.50;1026481;28;20090;-69
2023/01/13 00:52:15;;;;;;;1.25;0.40;;;;;;;6.36;100.00;95584.19;1027679;28;20341;-69
2023/01/13 00:52:45;;;;;;;1.63;0.50;;;;;;;6.34;100.00;95573.25;1018920;29;20035;-68
2023/01/13 00:53:17;;;;;;;0.73;0.30;;;;;;;6.32;100.00;95577.13;1026613;28;20035;-71
2023/01/13 00:53:49;;;;;;;3.50;0.50;;;;;;;6.28;100.00;95579.41;1026742;28;20047;-68
2023/01/13 00:54:19;;;;;;;2.13;0.35;;;;;;;6.26;100.00;95565.03;1031611;28;20939;-69
2023/01/13 00:54:50;;;;;;;0.70;0.40;;;;;;;6.26;100.00;95578.06;1035504;28;20299;-72
2023/01/13 00:55:20;;;;;;;2.83;0.50;;;;;;;6.32;100.00;95567.47;1030448;28;20491;-69
2023/01/13 00:56:03;;;;;;;0.90;0.32;;;;;;;6.32;100.00;95569.28;1033598;28;20104;-71
2023/01/13 00:56:34;;;;;;;1.30;0.43;;;;;;;6.33;100.00;95563.84;1036292;28;20030;-70
2023/01/13 00:57:04;;;;;;;0.30;0.10;;;;;;;6.34;100.00;95569.84;1038740;28;20910;-69
2023/01/13 00:57:34;;;;;;;1.35;0.30;;;;;;;6.34;100.00;95562.81;1039758;28;20397;-68
2023/01/13 00:58:05;;;;;;;1.27;0.35;;;;;;;6.30;100.00;95564.31;1030761;28;20041;-70
2023/01/13 00:58:35;;;;;;;1.25;0.32;;;;;;;6.35;100.00;95558.41;1030346;28;20112;-70
2023/01/13 00:59:08;;;;;;;0.30;0.30;;;;;;;6.36;100.00;95560.75;1027945;28;20680;-71
2023/01/13 00:59:39;;;;;;;0.85;0.50;;;;;;;6.32;100.00;95564.09;1022957;28;20059;-70
2023/01/13 01:00:10;;;;;;;3.33;0.50;;;;;;;6.27;100.00;95557.00;1026659;28;20285;-67
2023/01/13 01:00:41;;;;;;;1.10;0.40;;;;;;;6.31;100.00;95558.09;1034608;28;20033;-73
2023/01/13 01:01:14;;;;;;;1.83;0.60;;;;;;;6.27;100.00;95550.97;1030547;28;20277;-70
2023/01/13 01:01:44;;;;;;;0.63;0.30;;;;;;;6.33;100.00;95561.22;1026500;28;20038;-70
2023/01/13 01:02:15;;;;;;;2.00;0.40;;;;;;;6.35;100.00;95563.59;1023070;28;20271;-69
2023/01/13 01:02:45;;;;;;;0.25;0.25;;;;;;;6.35;100.00;95574.81;1019583;28;20028;-69
2023/01/13 01:03:16;;;;;;;1.15;0.40;;;;;;;6.44;100.00;95571.78;1026943;28;20026;-68
2023/01/13 01:03:47;;;;;;;1.42;0.57;;;;;;;6.37;100.00;95561.53;1030610;28;20098;-69
2023/01/13 01:04:17;;;;;;;1.65;0.40;;;;;;;6.34;100.00;95565.44;1031620;28;20033;-69
2023/01/13 01:04:48;;;;;;;0.35;0.30;;;;;;;6.33;100.00;95563.84;1022413;29;20768;-69
2023/01/13 01:05:18;;;;;;;1.60;0.50;;;;;;;6.33;100.00;95560.44;1018577;29;20051;-70
2023/01/13 01:05:48;;;;;;;0.60;0.60;;;;;;;6.40;100.00;95555.06;1022656;28;20063;-69
2023/01/13 01:06:23;;;;;;;1.42;0.35;;;;;;;6.37;100.00;95569.34;1026624;28;20041;-69
2023/01/13 01:06:54;;;;;;;1.02;0.65;;;;;;;6.33;100.00;95563.84;1030559;28;20042;-68
2023/01/13 01:07:24;;;;;;;2.35;0.47;;;;;;;6.35;100.00;95553.97;1030955;28;20649;-69
2023/01/13 01:07:55;;;;;;;0.40;0.30;;;;;;;6.44;100.00;95561.38;1031030;28;20042;-69
2023/01/13 01:08:25;;;;;;;1.05;0.40;;;;;;;6.41;100.00;95559.25;1030619;28;20539;-68
2023/01/13 01:08:56;;;;;;;3.45;0.45;;;;;;;6.42;100.00;95563.44;1030776;28;20057;-69
2023/01/13 01:09:33;;;;;;;0.95;0.30;;;;;;;6.39;100.00;95559.50;1027867;28;20539;-71
2023/01/13 01:10:04;;;;;;;4.95;1.30;;;;;;;6.37;100.00;95562.34;1027556;28;20058;-69
2023/01/13 01:10:34;;;;;;;0.43;0.32;;;;;;;6.37;100.00;95554.53;1026568;28;20285;-69
2023/01/13 01:11:07;;;;;;;2.20;0.55;;;;;;;6.42;100.00;95574.66;1023594;28;20031;-70
2023/01/13 01:11:37;;;;;;;0.40;0.30;;;;;;;6.43;100.00;95555.38;1020372;29;20035;-69
2023/01/13 01:12:08;;;;;;;0.82;0.40;;;;;;;6.42;100.00;95559.00;1026397;28;20826;-69
2023/01/13 01:12:38;;;;;;;0.38;0.30;;;;;;;6.44;100.00;95561.38;1027555;28;20039;-69
2023/01/13 01:13:13;;;;;;;0.70;0.40;;;;;;;6.44;100.00;95566.56;1030894;28;20061;-69
2023/01/13 01:13:44;;;;;;;0.20;0.20;;;;;;;6.43;100.00;95544.94;1035155;28;20120;-69
2023/01/13 01:14:14;;;;;;;1.05;0.40;;;;;;;6.44;100.00;95556.16;1031658;28;20312;-69
2023/01/13 01:14:45;;;;;;;3.75;0.50;;;;;;;6.47;100.00;95551.28;1031832;28;20027;-68
2023/01/13 01:15:16;;;;;;;0.73;0.57;;;;;;;6.51;100.00;95551.56;1035190;28;20036;-69
2023/01/13 01:15:47;;;;;;;1.42;0.40;;;;;;;6.49;100.00;95538.78;1034129;28;20750;-69
2023/01/13 01:16:18;;;;;;;0.98;0.40;;;;;;;6.50;100.00;95549.97;1038794;28;20056;-69
2023/01/13 01:16:48;;;;;;;0.95;0.30;;;;;;;6.48;100.00;95552.06;1034914;28;20034;-69
2023/01/13 01:17:19;;;;;;;0.50;0.38;;;;;;;6.48;100.00;95552.06;1031060;28;20257;-69
2023/01/13 01:17:49;;;;;;;0.88;0.50;;;;;;;6.45;100.00;95550.72;1020567;28;20055;-68
2023/01/13 01:18:22;;;;;;;1.55;0.65;;;;;;;6.45;100.00;95548.09;1018751;29;20059;-70
2023/01/13 01:18:53;;;;;;;4.35;0.50;;;;;;;6.39;100.00;95549.06;1019088;29;20079;-68
2023/01/13 01:19:24;;;;;;;0.30;0.30;;;;;;;6.42;100.00;95547.81;1024114;28;20261;-68
2023/01/13 01:19:54;;;;;;;1.92;0.22;;;;;;;6.50;100.00;95547.38;1030953;28;20073;-68
2023/01/13 01:20:25;;;;;;;1.00;0.50;;;;;;;6.47;100.00;95555.69;1024755;28;20047;-70
2023/01/13 01:20:58;;;;;;;1.55;0.80;;;;;;;6.37;100.00;95544.09;1030541;28;20725;-69
2023/01/13 01:21:29;;;;;;;2.17;0.30;;;;;;;6.48;100.00;95557.28;1034403;28;20091;-70
2023/01/13 01:21:59;;;;;;;0.95;0.28;;;;;;;6.44;100.00;95545.72;1030651;28;20261;-69
2023/01/13 01:22:30;;;;;;;0.88;0.43;;;;;;;6.45;100.00;95548.09;1030445;28;20077;-70
2023/01/13 01:23:00;;;;;;;2.45;0.40;;;;;;;6.44;100.00;95545.72;1022412;28;20031;-69
2023/01/13 01:23:31;;;;;;;3.75;0.60;;;;;;;6.39;100.00;95549.06;1022438;28;20050;-69
2023/01/13 01:24:02;;;;;;;1.52;0.40;;;;;;;6.38;100.00;95555.31;1018403;29;20115;-67
2023/01/13 01:24:32;;;;;;;1.02;0.68;;;;;;;6.38;100.00;95550.09;1022448;28;20027;-69
2023/01/13 01:25:03;;;;;;;1.02;0.30;;;;;;;6.38;100.00;95550.88;1022418;28;20271;-68
2023/01/13 01:25:34;;;;;;;0.50;0.20;;;;;;;6.42;100.00;95555.63;1022360;28;20030;-69
2023/01/13 01:26:06;;;;;;;0.98;0.50;;;;;;;6.38;100.00;95552.72;1022876;28;20023;-69
2023/01/13 01:26:37;;;;;;;1.48;0.40;;;;;;;6.42;100.00;95543.38;1030564;28;20752;-71
2023/01/13 01:27:07;;;;;;;0.30;0.20;;;;;;;6.42;100.00;95553.81;1030890;28;20285;-69
2023/01/13 01:27:37;;;;;;;1.85;0.77;;;;;;;6.44;100.00;95550.94;1030677;28;20780;-67
2023/01/13 01:28:08;;;;;;;0.88;0.35;;;;;;;6.49;100.00;95548.41;1033912;28;20025;-70
2023/01/13 01:28:39;;;;;;;3.35;0.45;;;;;;;6.42;100.00;95532.16;1030857;28;20018;-68
2023/01/13 01:29:14;;;;;;;0.60;0.30;;;;;;;6.50;100.00;95544.78;1026285;28;20097;-70
2023/01/13 01:29:44;;;;;;;2.13;0.32;;;;;;;6.54;100.00;95551.88;1027106;28;20428;-68
2023/01/13 01:30:15;;;;;;;1.40;0.40;;;;;;;6.48;100.00;95547.63;1027818;28;20301;-69
2023/01/13 01:30:45;;;;;;;0.52;0.30;;;;;;;6.47;100.00;95547.84;1028179;28;20030;-69
2023/01/13 01:31:18;;;;;;;1.65;0.32;;;;;;;6.46;100.00;95552.28;1025937;28;20023;-69
2023/01/13 01:31:48;;;;;;;1.60;0.40;;;;;;;6.49;100.00;95551.03;1026519;28;20025;-68
2023/01/13 01:32:19;;;;;;;1.48;0.93;;;;;;;6.48;100.00;95555.44;1030516;28;20845;-69
2023/01/13 01:32:49;;;;;;;2.15;0.55;;;;;;;6.47;100.00;95547.84;1030423;28;20026;-68
2023/01/13 01:33:20;;;;;;;0.52;0.30;;;;;;;6.51;100.00;95543.75;1026576;28;20089;-67
2023/01/13 01:33:52;;;;;;;1.35;0.60;;;;;;;6.49;100.00;95543.97;1029998;28;20050;-71
2023/01/13 01:34:22;;;;;;;1.00;0.47;;;;;;;6.47;100.00;95553.06;1022280;29;20357;-69
2023/01/13 01:34:52;;;;;;;0.38;0.30;;;;;;;6.52;100.00;95546.09;1026655;28;20818;-72
2023/01/13 01:35:23;;;;;;;2.30;0.40;;;;;;;6.44;100.00;95546.53;1023908;28;20026;-71
2023/01/13 01:35:53;;;;;;;1.48;0.40;;;;;;;6.47;100.00;95550.47;1025885;28;20031;-69
2023/01/13 01:36:29;;;;;;;0.82;0.40;;;;;;;6.53;100.00;95549.50;1030639;28;20041;-68
2023/01/13 01:36:59;;;;;;;0.40;0.30;;;;;;;6.51;100.00;95557.56;1026971;28;20023;-69
2023/01/13 01:37:29;;;;;;;3.03;0.47;;;;;;;6.49;100.00;95556.22;1031002;28;20536;-68
2023/01/13 01:38:00;;;;;;;1.88;0.52;;;;;;;6.55;100.00;95547.44;1030573;28;20021;-68
2023/01/13 01:38:30;;;;;;;1.35;0.30;;;;;;;6.68;100.00;95556.75;1030990;28;20034;-68
2023/01/13 01:39:01;;;;;;;1.92;0.40;;;;;;;6.67;100.00;95548.09;1038615;28;20084;-69
2023/01/13 01:39:31;;;;;;;1.00;0.20;;;;;;;6.68;100.00;95554.91;1034394;28;20376;-69
2023/01/13 01:40:02;;;;;;;3.28;0.50;;;;;;;6.60;100.00;95547.50;1038482;28;20021;-69
2023/01/13 01:40:32;;;;;;;4.90;0.40;;;;;;;6.60;100.00;95558.72;1038503;28;20092;-67
2023/01/13 01:41:03;;;;;;;1.63;0.50;;;;;;;6.61;100.00;95551.72;1030255;28;20096;-70
2023/01/13 01:41:33;;;;;;;1.60;0.40;;;;;;;6.56;100.00;95551.63;1022361;29;20548;-69
2023/01/13 01:44:06;;;;;;;2.22;0.70;;;;;;;6.69;100.00;95560.91;1036034;28;20416;-69
2023/01/13 01:44:54;;;;;;;0.52;0.40;;;;;;;6.59;100.00;95549.31;1033766;28;20371;-69
2023/01/13 01:45:26;;;;;;;1.23;0.38;;;;;;;6.70;100.00;95550.22;1025167;28;20913;-70
2023/01/13 01:45:56;;;;;;;0.32;0.25;;;;;;;6.69;100.00;95559.09;1023825;29;20318;-71
2023/01/13 01:46:27;;;;;;;1.83;0.40;;;;;;;6.71;100.00;95545.84;1023811;29;20267;-70
2023/01/13 01:46:58;;;;;;;3.80;0.30;;;;;;;6.71;100.00;95549.22;1020166;29;20737;-71
2023/01/13 01:47:28;;;;;;;1.73;0.90;;;;;;;6.67;100.00;95553.31;1019925;29;20267;-69
2023/01/13 01:48:00;;;;;;;0.60;0.25;;;;;;;6.61;100.00;95552.50;1023944;28;20854;-69
2023/01/13 01:48:33;;;;;;;1.65;0.40;;;;;;;6.66;100.00;95543.94;1024576;28;20027;-68
2023/01/13 01:49:24;;;;;;;1.92;0.63;;;;;;;6.68;100.00;95552.31;1019523;29;20334;-68
2023/01/13 01:49:54;;;;;;;;;;;;;;;6.64;100.00;95564.25;1028385;28;20267;-70
2023/01/13 01:50:25;;;;;;;;;;;;;;;6.60;100.00;95550.91;1024755;28;20342;-68
2023/01/13 01:50:55;;;;;;;5.37;0.27;;;;;;;6.61;100.00;95557.72;1030694;28;20442;-68
2023/01/13 01:51:26;;;;;;;2.42;0.30;;;;;;;6.66;100.00;95564.00;1034768;28;20118;-68
2023/01/13 01:52:01;;;;;;;0.98;0.38;;;;;;;6.68;100.00;95562.75;1022232;28;20027;-68
2023/01/13 01:52:36;;;;;;;1.15;0.52;;;;;;;6.73;100.00;95544.53;1030961;28;20451;-68
2023/01/13 01:53:12;;;;;;;0.30;0.22;;;;;;;6.69;100.00;95535.63;1030351;28;20265;-70
2023/01/13 01:53:42;;;;;;;1.15;0.28;;;;;;;6.67;100.00;95535.06;1032312;28;20261;-67
2023/01/13 01:54:16;;;;;;;1.08;0.50;;;;;;;6.71;100.00;95551.84;1033076;28;20269;-69
2023/01/13 01:55:00;;;;;;;2.35;0.50;;;;;;;6.66;100.00;95543.94;1026479;28;20111;-70
2023/01/13 01:55:32;;;;;;;0.30;0.20;;;;;;;6.65;100.00;95539.75;1022048;29;20274;-68
2023/01/13 01:56:03;;;;;;;0.77;0.28;;;;;;;6.70;100.00;95539.81;1034199;28;20265;-70
2023/01/13 01:56:33;;;;;;;1.25;0.30;;;;;;;6.60;100.00;95535.25;1030249;28;20955;-68
2023/01/13 01:57:04;;;;;;;0.98;0.38;;;;;;;6.77;100.00;95537.81;1026520;28;20583;-66
2023/01/13 01:57:34;;;;;;;1.70;0.38;;;;;;;6.79;100.00;95543.56;1022530;28;20035;-67
2023/01/13 01:58:04;;;;;;;0.40;0.25;;;;;;;6.78;100.00;95547.22;1030476;28;20084;-69
2023/01/13 01:58:41;;;;;;;1.33;0.40;;;;;;;6.77;100.00;95547.44;1030623;28;20675;-70
2023/01/13 01:59:11;;;;;;;2.13;0.30;;;;;;;6.71;100.00;95541.41;1035029;28;20080;-68
2023/01/13 01:59:42;;;;;;;0.30;0.20;;;;;;;6.67;100.00;95545.50;1038467;28;20732;-67
2023/01/13 02:00:13;;;;;;;1.70;0.50;;;;;;;6.67;100.00;95544.72;1026778;28;20121;-69
2023/01/13 02:00:43;;;;;;;2.03;0.40;;;;;;;6.67;100.00;95545.50;1022400;28;20409;-69
2023/01/13 02:01:14;;;;;;;0.63;0.30;;;;;;;6.71;100.00;95540.63;1026263;28;20038;-68
2023/01/13 02:01:44;;;;;;;2.00;0.20;;;;;;;6.72;100.00;95547.41;1022671;28;20034;-69
2023/01/13 02:02:15;;;;;;;2.05;0.40;;;;;;;6.72;100.00;95542.97;1026352;28;20027;-68
2023/01/13 02:02:46;;;;;;;2.83;0.40;;;;;;;6.72;100.00;95537.75;1030271;28;20061;-68
2023/01/13 02:03:17;;;;;;;0.35;0.20;;;;;;;6.69;100.00;95537.44;1026620;28;20599;-69
2023/01/13 02:04:00;;;;;;;1.95;0.45;;;;;;;6.76;100.00;95554.47;1026321;28;20286;-68
2023/01/13 02:04:33;;;;;;;0.50;0.50;;;;;;;6.68;100.00;95541.88;1022173;28;20027;-68
2023/01/13 02:05:04;;;;;;;0.68;0.30;;;;;;;6.68;100.00;95557.53;1022389;29;20278;-69
2023/01/13 02:05:34;;;;;;;0.82;0.45;;;;;;;6.64;100.00;95550.41;1017687;29;20271;-68
2023/01/13 02:06:05;;;;;;;0.50;0.28;;;;;;;6.70;100.00;95542.41;1029355;28;20137;-69
2023/01/13 02:06:35;;;;;;;0.45;0.20;;;;;;;6.77;100.00;95548.25;1034230;28;20136;-70
2023/01/13 02:07:06;;;;;;;2.40;0.60;;;;;;;6.79;100.00;95546.19;1026321;28;20045;-68
2023/01/13 02:07:38;;;;;;;1.08;0.40;;;;;;;6.79;100.00;95543.56;1030035;28;20774;-69
2023/01/13 02:08:09;;;;;;;2.95;0.30;;;;;;;6.81;100.00;95544.13;1022424;28;20026;-69
2023/01/13 02:08:39;;;;;;;0.50;0.40;;;;;;;6.79;100.00;95542.78;1018106;28;20334;-68
2023/01/13 02:09:10;;;;;;;1.75;0.35;;;;;;;6.81;100.00;95540.75;1018928;29;20039;-68
2023/01/13 02:09:40;;;;;;;0.73;0.40;;;;;;;6.67;100.00;95537.69;1026341;28;20031;-69
2023/01/13 02:10:13;;;;;;;0.55;0.47;;;;;;;6.75;100.00;95536.50;1026211;28;20508;-68
2023/01/13 02:10:45;;;;;;;0.47;0.32;;;;;;;6.82;100.00;95527.44;1026420;28;20061;-67
2023/01/13 02:12:33;;;;;;;1.88;0.30;;;;;;;6.84;100.00;95535.81;1030104;28;20346;-71
2023/01/13 02:13:05;;;;;;;0.38;0.20;;;;;;;6.72;100.00;95524.72;1027090;28;20266;-68
2023/01/13 02:13:35;;;;;;;0.73;0.40;;;;;;;6.77;100.00;95531.81;1027125;28;20285;-68
2023/01/13 02:14:06;;;;;;;2.28;0.57;;;;;;;6.70;100.00;95524.16;1030301;28;20976;-68
2023/01/13 02:14:36;;;;;;;0.17;0.17;;;;;;;6.69;100.00;95511.38;1025760;28;20023;-69
2023/01/13 02:15:11;;;;;;;2.05;0.30;;;;;;;6.97;100.00;95520.81;1022541;28;20031;-69
2023/01/13 02:16:21;;;;;;;0.93;0.32;;;;;;;6.92;100.00;95528.59;1025530;28;20603;-67
2023/01/13 02:17:05;;;;;;;0.73;0.30;;;;;;;6.92;100.00;95541.63;1027344;28;20871;-67
2023/01/13 02:17:57;;;;;;;1.55;0.75;;;;;;;6.94;100.00;95523.91;1030682;28;20273;-66
2023/01/13 02:18:52;;;;;;;2.17;0.30;;;;;;;7.01;100.00;95529.75;1026759;28;20273;-68
2023/01/13 02:19:42;;;;;;;2.50;0.38;;;;;;;6.98;100.00;95530.22;1031636;28;20279;-69
2023/01/13 02:20:33;;;;;;;0.52;0.45;;;;;;;6.90;100.00;95528.03;1027039;28;20262;-68
2023/01/13 02:21:14;;;;;;;0.20;0.20;;;;;;;6.78;100.00;95526.34;1030181;28;20340;-68
2023/01/13 02:21:50;;;;;;;;;;;;;;;6.75;100.00;95532.06;1028397;28;20780;-71
2023/01/13 02:22:52;;;;;;;0.35;0.30;;;;;;;6.73;100.00;95531.50;1026300;28;19914;-67
2023/01/13 02:24:53;;;;;;;1.55;0.40;;;;;;;6.77;100.00;95527.41;1034283;28;20279;-68
2023/01/13 02:25:42;;;;;;;1.00;0.43;;;;;;;6.72;100.00;95532.53;1026686;28;20270;-68
2023/01/13 02:26:16;;;;;;;3.00;0.50;;;;;;;6.71;100.00;95524.97;1030180;28;20819;-66
2023/01/13 02:27:01;;;;;;;0.38;0.28;;;;;;;6.75;100.00;95528.66;1030760;28;20277;-67
2023/01/13 02:27:52;;;;;;;1.45;0.40;;;;;;;6.74;100.00;95529.69;1034451;28;20268;-68
2023/01/13 02:31:40;;;;;;;0.98;0.40;;;;;;;6.82;100.00;95532.66;1030596;28;20277;-69
2023/01/13 02:31:42;;;;;;;1.50;0.10;;;;;;;6.79;100.00;95521.94;1038075;28;20323;-68
2023/01/13 02:32:25;;;;;;;1.42;0.40;;;;;;;6.83;100.00;95518.56;1030772;28;20272;-67
2023/01/13 02:33:20;;;;;;;1.05;0.50;;;;;;;6.80;100.00;95529.50;1032043;28;20838;-68
2023/01/13 02:34:03;;;;;;;2.88;0.40;;;;;;;6.89;100.00;95521.25;1023910;28;21190;-68
2023/01/13 02:34:45;;;;;;;2.50;0.50;;;;;;;6.91;100.00;95525.22;1028044;28;20254;-68
2023/01/13 02:35:40;;;;;;;1.83;0.40;;;;;;;6.87;100.00;95520.69;1030674;28;20261;-69
2023/01/13 02:36:38;;;;;;;1.15;0.50;;;;;;;6.81;100.00;95515.44;1035411;28;20693;-69
2023/01/13 02:37:13;;;;;;;2.20;0.32;;;;;;;6.94;100.00;95523.91;1031189;28;20258;-68
2023/01/13 02:37:43;;;;;;;1.33;0.40;;;;;;;6.90;100.00;95517.59;1034538;28;20264;-68
2023/01/13 02:38:14;;;;;;;5.20;0.40;;;;;;;6.88;100.00;95522.31;1022034;29;20704;-68
2023/01/13 02:38:52;;;;;;;0.85;0.50;;;;;;;6.84;100.00;95520.19;1016535;29;20031;-68
2023/01/13 02:39:35;;;;;;;0.15;0.15;;;;;;;6.79;100.00;95517.50;1022778;29;20407;-67
2023/01/13 02:40:09;;;;;;;2.50;0.32;;;;;;;6.77;100.00;95514.38;1026903;28;20262;-70
2023/01/13 02:40:55;;;;;;;1.92;0.50;;;;;;;6.68;100.00;95513.22;1026990;28;20270;-70
2023/01/13 02:44:24;;;;;;;0.55;0.35;;;;;;;6.74;100.00;95514.03;1027033;28;20258;-68
2023/01/13 02:45:03;;;;;;;0.60;0.28;;;;;;;6.73;100.00;95512.47;1017625;29;20267;-67
2023/01/13 02:45:38;;;;;;;0.82;0.30;;;;;;;6.79;100.00;95514.09;1018447;29;20334;-68
2023/01/13 02:46:30;;;;;;;1.92;0.40;;;;;;;6.85;100.00;95513.13;1022873;29;20977;-70
2023/01/13 02:47:04;;;;;;;1.98;0.40;;;;;;;6.77;100.00;95509.16;1022969;28;20271;-67